Quick Links (Output Below):   Max & Min Temps   /   Climate Reports   /   Zone Forecasts
River Forecasts   /   Forestry Forecasts   /   Aviation Forecasts   /   Radars   /   Features

Terminal Aerodrome Forecast (Mountain Home)

Pick a Site:
Arkadelphia | El Dorado | Fayetteville | Fort Smith | Harrison | Highfill | Hot Springs | Jonesboro
Little Rock | Monticello | Mountain Home | Pine Bluff | Texarkana
 Forecast 

KBPK 281733Z 2818/2918 35010KT P6SM SCT050
     FM290100 34004KT P6SM SKC
     FM291100 VRB03KT P6SM SKC=


 Latest METARs (Observations) 
How to Decode METARs
18Z KBPK 281753Z AUTO VRB05KT 10SM SCT045 26/16 A3014 RMK AO2 SLP196
         T02610161 10267 20172 58008
         
17Z KBPK 281653Z AUTO 29006KT 10SM CLR 25/16 A3016 RMK AO2 SLP203
         T02500161
         
16Z KBPK 281553Z AUTO 00000KT 10SM CLR 24/16 A3017 RMK AO2 SLP206
         T02440161
         
15Z KBPK 281453Z AUTO 00000KT 10SM CLR 23/16 A3016 RMK AO2 SLP206
         T02280156 53012
         
14Z KBPK 281353Z AUTO 35004KT 10SM CLR 22/16 A3015 RMK AO2 SLP201
         T02170156
         
13Z KBPK 281253Z AUTO 33004KT 10SM CLR 19/16 A3014 RMK AO2 SLP196
         T01940156
         
12Z KBPK 281153Z AUTO 32003KT 10SM CLR 17/16 A3013 RMK AO2 SLP193
         T01720156 10222 20156 51017
         
11Z KBPK 281053Z AUTO 31003KT 10SM CLR 17/15 A3012 RMK AO2 SLP190
         T01670150
         
10Z KBPK 280953Z AUTO 00000KT 10SM CLR 17/15 A3010 RMK AO2 SLP183
         T01670150
         
09Z KBPK 280853Z AUTO 00000KT 10SM CLR 18/15 A3008 RMK AO2 SLP175
         T01830150 53006
         
***** Today's Observations (Above) *****


Back to Main Page
http://www.srh.noaa.gov/lzk/qfcst.php

USA.gov is the U.S. government's official web portal to all federal, state and local government web resources and services.